Dayton, OH (45409)

8:33 AM EST on January 22, 2017 (GMT -0500)
University of Dayton | | Change Station
Active Advisory: Special Statement

Elev 797 ft 39.74 °N, 84.18 °W | Updated 3 minutes ago

Mostly Cloudy
Mostly Cloudy
45.8 °F
Feels Like 46 °F
N
0.0
Wind Variable Wind from ESE
Gusts 2.0 mph

Today
High -- | Low -- °F
--% Chance of Precip.
Yesterday
High -- | Low -- °F
Precip. -- in
Pressure 29.63 in
Visibility 1.5 miles
Clouds Scattered Clouds 5000 ft
Mostly Cloudy 15000 ft
Windchill 46 °F
Dew Point 45 °F
Humidity 96%
Rainfall 0.00 in
Snow Depth Not available.
7:52 AM 5:45 PM
Waning Crescent, 26% visible
METAR KFFO 221258Z 00000KT 1 1/2SM BR SCT050 BKN150 04/04 A2961 RMK AO2A SLP032 T00380038
Pressure 29.63 in
Visibility 1.5 miles
Clouds Scattered Clouds 5000 ft
Mostly Cloudy 15000 ft
Windchill 46 °F
Dew Point 45 °F
Humidity 96%
Rainfall 0.00 in
Snow Depth Not available.
7:52 AM 5:45 PM
Waning Crescent, 26% visible
METAR KFFO 221258Z 00000KT 1 1/2SM BR SCT050 BKN150 04/04 A2961 RMK AO2A SLP032 T00380038

Get Your Daily Forecast Email!

Thanks for signing up!

Be on the lookout for a verification email in your inbox.

You'll start receiving the daily forecast at 8 AM.

×

10-Day Weather Forecast

Almanac

Astronomy

Jan. 22, 2017 Rise Set
Actual Time
Civil Twilight
Nautical Twilight
Astronomical Twilight
Moon
Length of Visible Light
Length of Day
Tomorrow will be .
, % of the Moon is Illuminated

Today's Extremes

State Highs State Lows

Community

WunderPhotos

Upload Photos

1,962,540 photos uploaded!

WunderBlog® & News

Nearby

Air Quality

  Air Quality AQ Index Pollutant
Not available.

Snow Depth

Station Depth Elevation

Earthquake Activity

City Distance Mag. Time & Date
Minimum magnitude displayed is 2.5.

Coastal Water Temperatures

Place Temperature

Stations

Nearby Weather Stations

Station Location Temp. Windchill Dew Point Humidity Wind Precip. Elev Updated Type
                   

Watches & Warnings

Special Statement
Issued: 5:50 AM EST Jan. 22, 2017 – National Weather Service

... Patchy dense fog this morning...

Patchy dense fog can be expected through mid morning. Visibilities
will be reduced to below a quarter of a mile at times. Please use
extra caution if traveling this morning.


550 am EST sun Jan 22 2017

... Patchy dense fog this morning...

Patchy dense fog can be expected through mid morning. Visibilities
will be reduced to below a quarter of a mile at times. Please use
extra caution if traveling this morning.